Time;durP1;ratioP1;P1;durP2;ratioP2;P2;SDS_P1;SDS_P2;PMS_P1;PMS_P2;Temp;Humidity;BMP_temperature;BMP_pressure;BME280_temperature;BME280_humidity;BME280_pressure;Samples;Min_cycle;Max_cycle;Signal;HPM_P1;HPM_P2
2021/10/29 04:52:24;;;;;;;20.95;13.20;;;;;;;2.83;73.42;100332.75;5024223;28;106282;-65
2021/10/29 04:54:50;;;;;;;27.30;14.95;;;;;;;2.89;73.74;100340.19;5012565;27;105870;-67
2021/10/29 04:57:15;;;;;;;24.40;16.40;;;;;;;2.98;73.43;100341.28;5012345;27;106632;-67
2021/10/29 04:59:41;;;;;;;21.15;14.82;;;;;;;3.02;73.76;100340.06;5006377;27;106676;-69
2021/10/29 05:02:06;;;;;;;26.90;16.10;;;;;;;3.04;73.29;100339.00;5003065;28;106627;-73
2021/10/29 05:04:31;;;;;;;25.08;15.13;;;;;;;3.07;73.63;100343.19;5003534;28;106046;-67
2021/10/29 05:06:57;;;;;;;23.50;15.18;;;;;;;3.10;73.43;100334.22;5004475;28;106180;-67
2021/10/29 05:09:22;;;;;;;25.63;16.45;;;;;;;3.15;73.28;100334.72;5003410;28;106235;-67
2021/10/29 05:11:47;;;;;;;28.85;16.67;;;;;;;3.17;73.15;100332.78;5003235;28;106278;-69
2021/10/29 05:14:12;;;;;;;21.58;14.73;;;;;;;3.19;72.99;100338.78;5003948;28;106378;-68
2021/10/29 05:16:38;;;;;;;30.92;16.23;;;;;;;3.19;73.18;100336.16;5003865;28;105891;-68
2021/10/29 05:19:04;;;;;;;27.52;16.85;;;;;;;3.18;72.77;100334.47;5003978;28;105985;-66
2021/10/29 05:21:29;;;;;;;34.92;15.98;;;;;;;3.15;73.04;100334.72;5003590;28;106227;-67
2021/10/29 05:23:55;;;;;;;29.25;17.35;;;;;;;3.13;72.91;100339.25;5003249;28;106070;-66
2021/10/29 05:26:20;;;;;;;26.17;16.77;;;;;;;3.11;72.61;100335.91;5003682;28;106190;-68
2021/10/29 05:28:46;;;;;;;27.58;16.52;;;;;;;3.10;73.19;100331.59;5003993;28;105965;-68
2021/10/29 05:31:12;;;;;;;26.42;16.40;;;;;;;3.09;73.04;100327.28;5003198;28;106185;-67
2021/10/29 05:33:38;;;;;;;23.92;16.08;;;;;;;3.09;73.31;100332.56;5004430;28;106087;-69
2021/10/29 05:36:03;;;;;;;25.50;15.65;;;;;;;3.12;73.46;100333.16;5003881;28;106269;-71
2021/10/29 05:38:29;;;;;;;28.02;16.90;;;;;;;3.16;73.52;100328.50;5003836;28;107815;-65
2021/10/29 05:40:55;;;;;;;25.73;16.48;;;;;;;3.21;73.54;100332.47;5003433;28;105758;-67
2021/10/29 05:43:20;;;;;;;23.10;15.07;;;;;;;3.23;73.24;100337.59;5004376;28;105910;-67
2021/10/29 05:45:45;;;;;;;24.00;15.60;;;;;;;3.28;72.95;100334.59;5003900;28;105906;-69
2021/10/29 05:48:11;;;;;;;21.42;14.18;;;;;;;3.29;73.19;100329.22;5003615;28;106090;-64
2021/10/29 05:50:38;;;;;;;28.20;15.52;;;;;;;3.32;72.52;100330.78;5003337;28;106060;-63
2021/10/29 05:53:06;;;;;;;24.75;14.32;;;;;;;3.36;72.78;100333.06;5004253;28;105860;-64
2021/10/29 05:55:32;;;;;;;25.25;16.00;;;;;;;3.38;72.60;100332.94;5003123;28;106401;-67
2021/10/29 05:57:57;;;;;;;23.55;14.23;;;;;;;3.42;72.95;100330.88;5003078;28;105771;-67
2021/10/29 06:00:27;;;;;;;23.42;15.73;;;;;;;3.49;72.78;100332.91;5003064;28;106219;-69
2021/10/29 06:02:52;;;;;;;28.45;15.55;;;;;;;3.54;72.16;100343.09;4994834;28;106003;-65
2021/10/29 06:05:18;;;;;;;21.83;14.30;;;;;;;3.55;72.02;100328.97;4990424;28;106035;-69
2021/10/29 06:07:44;;;;;;;29.38;16.30;;;;;;;3.58;72.11;100333.16;4989546;28;105894;-66
2021/10/29 06:10:14;;;;;;;26.98;16.10;;;;;;;3.62;71.81;100330.13;4990017;28;105999;-67
2021/10/29 06:12:40;;;;;;;24.77;16.10;;;;;;;3.65;71.80;100324.66;4990642;28;106339;-67
2021/10/29 06:15:07;;;;;;;23.75;15.23;;;;;;;3.72;71.97;100331.09;4989971;28;105987;-67
2021/10/29 06:17:33;;;;;;;32.65;15.73;;;;;;;3.82;72.49;100335.63;4993442;28;106150;-66
2021/10/29 06:20:00;;;;;;;23.42;15.45;;;;;;;3.94;72.17;100333.78;4997366;28;106123;-66
2021/10/29 06:22:40;;;;;;;28.95;15.68;;;;;;;4.05;71.79;100339.88;5005241;28;105870;-65
2021/10/29 06:25:14;;;;;;;27.60;16.13;;;;;;;4.24;72.09;100344.50;5010037;28;106229;-67
2021/10/29 06:30:06;;;;;;;23.08;14.55;;;;;;;4.57;71.99;100336.56;5009672;28;106054;-67
2021/10/29 06:32:32;;;;;;;24.27;13.68;;;;;;;4.73;71.16;100350.16;5010484;28;105926;-67
2021/10/29 06:34:58;;;;;;;27.02;15.25;;;;;;;4.91;71.21;100350.41;5009559;28;106097;-67
2021/10/29 06:37:24;;;;;;;24.92;14.90;;;;;;;5.10;70.88;100348.88;5009291;28;106392;-66
2021/10/29 06:39:50;;;;;;;23.90;14.48;;;;;;;5.30;70.91;100352.41;5009277;28;106060;-66
2021/10/29 06:42:33;;;;;;;19.65;13.90;;;;;;;5.51;70.30;100352.38;5009796;28;106094;-66
2021/10/29 06:45:12;;;;;;;22.13;11.70;;;;;;;5.73;69.98;100340.75;5009504;28;106169;-66
2021/10/29 06:47:48;;;;;;;21.00;14.05;;;;;;;6.01;69.69;100351.56;5008428;28;107020;-65
2021/10/29 07:01:39;;;;;;;21.10;13.77;;;;;;;7.31;66.59;100363.56;4988790;28;106135;-67
2021/10/29 07:04:23;;;;;;;29.40;15.43;;;;;;;7.56;66.65;100363.88;4989704;28;105918;-68
2021/10/29 07:13:00;;;;;;;34.60;16.77;;;;;;;8.31;65.00;100347.81;4988835;28;106171;-70
2021/10/29 07:42:37;;;;;;;20.90;14.45;;;;;;;11.48;59.73;100342.13;4967950;28;106506;-69
2021/10/29 07:45:03;;;;;;;23.17;14.82;;;;;;;12.00;59.17;100350.56;4968228;28;105942;-67
2021/10/29 07:47:29;;;;;;;25.60;14.00;;;;;;;12.56;58.89;100344.19;4978087;28;105833;-68
2021/10/29 07:49:54;;;;;;;22.13;13.82;;;;;;;13.22;57.57;100344.44;4987962;28;106617;-68
2021/10/29 07:52:20;;;;;;;19.48;12.25;;;;;;;14.15;54.29;100343.97;4987672;28;105925;-70
2021/10/29 07:54:45;;;;;;;13.73;10.43;;;;;;;15.57;49.98;100347.56;4987734;28;106088;-67
2021/10/29 07:57:20;;;;;;;17.95;10.05;;;;;;;16.95;49.20;100338.34;4988597;28;106326;-66
2021/10/29 07:59:53;;;;;;;16.70;10.82;;;;;;;18.35;47.08;100346.97;4988367;28;105996;-67
2021/10/29 08:02:19;;;;;;;17.55;9.05;;;;;;;19.01;43.48;100339.41;4987952;28;106124;-65
2021/10/29 08:04:45;;;;;;;13.65;9.15;;;;;;;19.19;41.39;100350.25;4988220;28;105853;-69
2021/10/29 08:07:11;;;;;;;15.77;9.40;;;;;;;19.36;39.83;100347.75;4989368;28;106328;-67
2021/10/29 08:09:38;;;;;;;15.10;9.57;;;;;;;19.75;39.02;100342.94;4988535;28;105927;-69
2021/10/29 08:12:03;;;;;;;11.40;7.93;;;;;;;19.89;36.72;100345.53;4988358;28;106336;-68
2021/10/29 08:14:29;;;;;;;12.18;8.40;;;;;;;19.84;35.37;100340.78;4987872;28;105940;-67
2021/10/29 08:16:55;;;;;;;12.23;8.10;;;;;;;19.88;33.92;100349.28;4989353;28;106381;-67
2021/10/29 08:19:31;;;;;;;13.05;9.70;;;;;;;20.08;33.60;100344.41;4988709;28;105891;-67
2021/10/29 08:22:00;;;;;;;14.75;9.40;;;;;;;20.50;31.94;100357.09;4988555;28;105798;-67
2021/10/29 08:24:27;;;;;;;14.70;9.83;;;;;;;20.98;30.52;100340.97;4988150;28;106060;-67
2021/10/29 08:26:53;;;;;;;14.40;9.32;;;;;;;21.67;28.50;100345.72;4989145;28;105863;-70
2021/10/29 08:29:19;;;;;;;11.68;8.57;;;;;;;22.34;27.51;100341.56;4988882;28;106234;-66
2021/10/29 08:31:45;;;;;;;15.07;9.27;;;;;;;23.01;26.89;100334.50;4987604;28;105965;-66
2021/10/29 08:34:10;;;;;;;13.65;8.60;;;;;;;24.01;26.40;100339.06;4988018;28;107663;-66
2021/10/29 08:36:39;;;;;;;14.40;8.45;;;;;;;24.83;24.81;100337.06;4989041;28;105992;-66
2021/10/29 08:39:07;;;;;;;12.52;9.05;;;;;;;25.68;23.97;100323.38;4988323;28;105827;-67
2021/10/29 08:41:33;;;;;;;15.48;8.82;;;;;;;26.27;22.60;100334.97;4987352;28;106457;-67
2021/10/29 08:43:59;;;;;;;13.43;8.32;;;;;;;26.50;22.03;100332.78;4988148;28;106142;-69
2021/10/29 08:46:26;;;;;;;11.70;6.75;;;;;;;26.96;20.99;100334.69;4988854;28;106475;-69
2021/10/29 08:48:52;;;;;;;11.80;7.68;;;;;;;27.23;20.32;100315.22;4988513;28;106150;-67
2021/10/29 08:51:18;;;;;;;13.02;8.57;;;;;;;27.07;19.74;100314.44;4987730;28;106773;-67
2021/10/29 08:53:44;;;;;;;15.10;8.40;;;;;;;27.36;19.61;100327.47;4988296;28;106311;-69
2021/10/29 08:56:10;;;;;;;9.77;6.78;;;;;;;27.72;18.86;100315.56;4988821;28;106160;-69
2021/10/29 08:59:05;;;;;;;11.05;7.75;;;;;;;28.00;18.39;100314.84;4987827;28;106725;-70
2021/10/29 09:01:50;;;;;;;10.63;8.32;;;;;;;28.83;18.28;100330.66;4987658;28;106854;-68
2021/10/29 09:04:21;;;;;;;10.20;7.22;;;;;;;29.17;17.65;100308.63;4986802;28;107051;-68
2021/10/29 09:07:07;;;;;;;9.75;7.03;;;;;;;29.69;16.66;100310.75;4988052;28;106219;-66
2021/10/29 09:09:49;;;;;;;12.55;7.40;;;;;;;30.29;16.55;100312.91;4987525;28;106102;-67
2021/10/29 09:31:57;;;;;;;13.13;8.38;;;;;;;34.31;13.52;100321.69;4987085;28;106097;-66
2021/10/29 09:34:23;;;;;;;18.35;8.57;;;;;;;34.39;13.04;100335.50;4986920;28;106444;-67
2021/10/29 09:36:50;;;;;;;10.55;7.25;;;;;;;34.11;13.17;100323.94;4986964;28;106742;-67
2021/10/29 09:39:21;;;;;;;11.38;8.30;;;;;;;33.91;12.77;100328.19;4990891;28;106507;-67
2021/10/29 09:42:00;;;;;;;9.98;8.07;;;;;;;34.35;13.16;100317.94;4990427;28;105833;-67
2021/10/29 09:44:38;;;;;;;11.87;8.10;;;;;;;36.06;12.34;100324.44;4990244;28;107472;-67
2021/10/29 09:47:05;;;;;;;11.82;7.55;;;;;;;36.26;11.70;100330.28;4990248;28;105879;-69
2021/10/29 09:49:35;;;;;;;16.30;9.23;;;;;;;35.60;12.18;100323.47;4990992;28;106035;-67
2021/10/29 09:54:54;;;;;;;14.57;9.10;;;;;;;36.50;11.88;100312.94;4987046;28;106604;-65
2021/10/29 09:57:22;;;;;;;16.77;9.95;;;;;;;36.63;11.63;100321.28;4989780;28;106023;-67
2021/10/29 10:00:12;;;;;;;11.98;8.88;;;;;;;36.57;11.57;100318.72;4991063;28;106016;-67
2021/10/29 10:02:41;;;;;;;15.52;8.95;;;;;;;36.63;11.47;100313.75;4987549;28;106129;-67
2021/10/29 10:05:07;;;;;;;12.23;8.18;;;;;;;37.29;11.35;100320.34;4989873;28;107904;-67
2021/10/29 10:07:38;;;;;;;14.93;8.68;;;;;;;37.27;11.48;100311.50;4989155;28;106234;-67
2021/10/29 10:10:07;;;;;;;14.63;7.60;;;;;;;37.26;11.32;100307.09;4990840;28;106020;-69
2021/10/29 10:12:35;;;;;;;12.85;8.63;;;;;;;37.48;10.89;100307.78;4989958;28;106260;-69
2021/10/29 10:15:03;;;;;;;13.45;9.00;;;;;;;37.53;10.92;100313.13;4990055;28;105869;-67
2021/10/29 10:17:30;;;;;;;22.23;8.50;;;;;;;37.12;10.77;100312.22;4989568;28;106389;-68
2021/10/29 10:19:56;;;;;;;12.48;8.60;;;;;;;36.79;10.80;100290.91;4990838;28;105928;-69
2021/10/29 10:22:26;;;;;;;16.35;9.35;;;;;;;37.05;10.89;100299.69;4990436;28;106345;-70
2021/10/29 10:25:00;;;;;;;19.15;11.65;;;;;;;38.23;10.67;100292.50;4990132;28;105980;-68
2021/10/29 10:46:49;;;;;;;8.85;6.47;;;;;;;40.04;8.71;100286.38;4986482;28;106462;-67
2021/10/29 10:49:19;;;;;;;8.40;6.53;;;;;;;40.37;8.44;100294.22;4989266;28;105955;-68
2021/10/29 10:51:53;;;;;;;9.63;6.78;;;;;;;40.61;8.46;100275.50;4989670;28;106327;-67
2021/10/29 10:54:32;;;;;;;10.45;7.57;;;;;;;40.76;8.16;100271.78;4989964;28;106016;-67
2021/10/29 10:59:43;;;;;;;8.57;7.00;;;;;;;42.47;7.60;100267.13;4988208;28;106254;-68
2021/10/29 11:10:22;;;;;;;7.60;6.50;;;;;;;42.80;6.90;100273.03;5008880;28;106283;-67
2021/10/29 11:12:48;;;;;;;10.63;6.93;;;;;;;42.21;7.21;100273.69;5009578;28;105904;-67
2021/10/29 11:15:25;;;;;;;9.13;7.00;;;;;;;41.74;7.36;100275.97;5008454;28;106290;-67
2021/10/29 11:18:01;;;;;;;11.25;6.57;;;;;;;42.19;6.96;100271.28;5009001;28;106467;-67
2021/10/29 11:20:40;;;;;;;8.38;6.55;;;;;;;42.45;7.17;100267.53;5008997;28;106230;-66
2021/10/29 11:23:33;;;;;;;;;;;;;;;42.99;7.24;100255.16;5009707;28;106023;-66
2021/10/29 11:26:09;;;;;;;11.23;6.90;;;;;;;43.76;6.54;100253.16;5007378;28;106086;-67
2021/10/29 11:28:41;;;;;;;12.63;8.30;;;;;;;43.65;6.44;100252.31;5009018;28;107136;-66
2021/10/29 11:31:09;;;;;;;9.48;7.05;;;;;;;43.69;6.63;100253.13;5008613;28;106685;-67
2021/10/29 11:33:42;;;;;;;11.35;6.38;;;;;;;44.32;6.05;100244.47;5009767;28;106056;-67
2021/10/29 11:36:10;;;;;;;10.55;6.63;;;;;;;44.38;6.05;100242.84;5009004;28;106384;-69
2021/10/29 11:38:39;;;;;;;9.55;6.30;;;;;;;44.45;5.81;100237.22;5004782;28;106365;-72
2021/10/29 11:41:07;;;;;;;10.10;7.60;;;;;;;44.74;5.79;100248.50;4996500;28;107130;-69
2021/10/29 11:43:34;;;;;;;11.88;7.88;;;;;;;45.58;5.38;100232.19;5006838;28;106009;-71
2021/10/29 11:46:02;;;;;;;20.65;10.20;;;;;;;46.35;5.54;100239.75;5009134;28;106568;-71
2021/10/29 11:48:28;;;;;;;11.57;8.23;;;;;;;46.69;5.34;100236.22;5008273;28;106882;-69
2021/10/29 11:51:09;;;;;;;14.18;9.30;;;;;;;47.29;5.40;100221.91;5008003;28;106052;-67
2021/10/29 11:53:46;;;;;;;12.82;8.70;;;;;;;48.16;4.96;100227.16;5009354;28;106035;-67
2021/10/29 11:59:12;;;;;;;16.55;8.10;;;;;;;48.20;5.03;100210.94;5005216;28;106446;-68
2021/10/29 12:07:22;;;;;;;10.95;8.10;;;;;;;46.25;5.56;100201.22;5005945;28;106401;-67
2021/10/29 12:09:52;;;;;;;11.05;6.95;;;;;;;46.23;5.43;100200.81;5008991;28;105782;-66
2021/10/29 12:12:22;;;;;;;12.73;7.70;;;;;;;46.11;5.68;100190.84;5008275;28;106204;-67
2021/10/29 12:14:49;;;;;;;10.10;7.47;;;;;;;46.57;5.20;100186.81;5009552;28;106010;-67
2021/10/29 12:19:56;;;;;;;12.90;8.70;;;;;;;46.58;5.80;100184.81;5005295;28;106668;-67
2021/10/29 12:22:44;;;;;;;12.40;7.35;;;;;;;46.71;5.28;100188.72;5008157;28;106492;-67
2021/10/29 12:28:04;;;;;;;12.27;6.95;;;;;;;47.03;5.58;100181.94;5005463;28;105937;-68
2021/10/29 12:33:39;;;;;;;9.20;6.68;;;;;;;46.96;5.58;100176.38;5007509;28;106235;-67
2021/10/29 13:03:24;;;;;;;11.82;6.82;;;;;;;46.59;5.53;100147.78;4968373;28;105900;-67
2021/10/29 13:05:56;;;;;;;8.18;6.20;;;;;;;45.62;5.54;100143.75;4967598;28;106426;-68
2021/10/29 13:08:24;;;;;;;8.27;5.85;;;;;;;43.85;5.91;100134.13;4968044;28;106289;-66
2021/10/29 13:10:53;;;;;;;7.10;5.97;;;;;;;43.10;6.15;100132.75;4983176;28;105930;-67
2021/10/29 13:13:27;;;;;;;9.68;5.65;;;;;;;42.11;6.66;100130.47;4994917;28;106076;-68
2021/10/29 13:15:59;;;;;;;7.95;5.50;;;;;;;41.56;6.60;100122.78;4998858;28;106403;-69
2021/10/29 13:18:33;;;;;;;9.48;6.28;;;;;;;41.66;6.99;100124.06;4992272;28;106379;-68
2021/10/29 13:34:19;;;;;;;13.35;6.13;;;;;;;40.09;7.42;100111.22;4988614;28;106069;-66
2021/10/29 13:34:55;;;;;;;9.45;5.90;;;;;;;39.65;7.75;100108.03;4988011;28;106272;-67
2021/10/29 13:37:44;;;;;;;9.23;5.70;;;;;;;39.47;7.71;100096.53;4988963;28;106024;-67
2021/10/29 13:51:20;;;;;;;9.55;5.28;;;;;;;38.59;8.30;100099.47;4990965;28;106067;-65
2021/10/29 13:54:35;;;;;;;8.70;5.38;;;;;;;37.81;8.40;100095.56;4989201;28;106166;-70
2021/10/29 14:01:39;;;;;;;9.98;5.55;;;;;;;36.07;9.63;100089.59;4968093;28;105912;-68
